createdAt,value
2023-05-25T00:02:06.986Z,82.5
2023-05-25T00:07:06.912Z,83.0
2023-05-25T00:12:06.913Z,83.0
2023-05-25T00:17:06.952Z,83.0
2023-05-25T00:22:06.923Z,84.5
2023-05-25T00:27:06.915Z,85.5
2023-05-25T00:32:06.915Z,85.0
2023-05-25T00:37:06.927Z,85.0
2023-05-25T00:42:06.921Z,85.5
2023-05-25T00:47:06.919Z,86.0
2023-05-25T00:52:06.933Z,85.5
2023-05-25T00:57:06.924Z,86.5
2023-05-25T01:02:06.967Z,86.5
2023-05-25T01:07:06.943Z,86.5
2023-05-25T01:12:06.933Z,86.5
2023-05-25T01:17:06.930Z,86.5
2023-05-25T01:22:06.940Z,86.5
2023-05-25T01:27:06.932Z,86.0
2023-05-25T01:32:06.959Z,86.5
2023-05-25T01:37:06.932Z,86.5
2023-05-25T01:42:06.935Z,86.5
2023-05-25T01:47:06.947Z,86.5
2023-05-25T01:52:07.028Z,86.5
2023-05-25T01:57:06.940Z,86.5
2023-05-25T02:02:06.945Z,86.5
2023-05-25T02:07:06.943Z,86.5
2023-05-25T02:12:06.944Z,87.0
2023-05-25T02:17:06.953Z,87.0
2023-05-25T02:22:06.957Z,87.0
2023-05-25T02:27:06.991Z,87.0
2023-05-25T02:32:06.956Z,87.0
2023-05-25T02:37:06.976Z,87.0
2023-05-25T02:42:06.963Z,87.0
2023-05-25T02:47:07.181Z,87.5
2023-05-25T02:52:06.961Z,88.0
2023-05-25T02:57:06.953Z,88.0
2023-05-25T03:02:06.996Z,88.0
2023-05-25T03:07:06.965Z,88.5
2023-05-25T03:12:06.975Z,88.5
2023-05-25T03:17:07.007Z,89.0
2023-05-25T03:22:06.975Z,89.0
2023-05-25T03:27:06.965Z,89.0
2023-05-25T03:32:06.980Z,89.5
2023-05-25T03:37:06.970Z,89.5
2023-05-25T03:42:06.970Z,89.0
2023-05-25T03:47:06.984Z,89.0
2023-05-25T03:52:06.976Z,90.0
2023-05-25T03:57:06.980Z,89.0
2023-05-25T04:02:07.002Z,89.0
2023-05-25T04:07:06.976Z,90.0
2023-05-25T04:12:06.979Z,90.0
2023-05-25T04:17:06.974Z,90.0
2023-05-25T04:22:06.977Z,90.5
2023-05-25T04:27:06.985Z,91.0
2023-05-25T04:32:06.982Z,91.0
2023-05-25T04:37:06.979Z,91.0
2023-05-25T04:42:06.986Z,91.5
2023-05-25T04:47:06.980Z,92.5
2023-05-25T04:52:06.999Z,92.0
2023-05-25T04:57:06.997Z,91.5
2023-05-25T05:02:07.000Z,92.0
2023-05-25T05:07:07.001Z,92.0
2023-05-25T05:12:06.997Z,92.0
2023-05-25T05:17:07.032Z,92.5
2023-05-25T05:22:07.013Z,93.5
2023-05-25T05:27:07.021Z,93.5
2023-05-25T05:32:07.015Z,93.5
2023-05-25T05:37:07.012Z,94.0
2023-05-25T05:42:07.032Z,94.5
2023-05-25T05:47:07.023Z,94.5
2023-05-25T05:52:07.013Z,94.5
2023-05-25T05:57:07.010Z,94.5
2023-05-25T06:02:07.053Z,94.0
2023-05-25T06:07:07.048Z,93.5
2023-05-25T06:12:07.075Z,92.0
2023-05-25T06:17:07.180Z,91.0
2023-05-25T06:22:07.039Z,89.5
2023-05-25T06:27:07.038Z,88.5
2023-05-25T06:32:07.073Z,87.5
2023-05-25T06:37:07.070Z,86.5
2023-05-25T06:42:07.061Z,84.5
2023-05-25T06:47:07.052Z,84.0
2023-05-25T06:52:07.054Z,83.5
2023-05-25T06:57:07.061Z,81.0
2023-05-25T07:02:07.069Z,81.5
2023-05-25T07:07:07.064Z,80.0
2023-05-25T07:12:07.068Z,79.0
2023-05-25T07:17:07.102Z,79.5
2023-05-25T07:22:07.078Z,78.0
2023-05-25T07:27:07.091Z,76.5
2023-05-25T07:32:07.085Z,75.5
2023-05-25T07:37:07.091Z,75.0
2023-05-25T07:42:07.090Z,73.5
2023-05-25T07:47:07.297Z,72.5
2023-05-25T07:52:07.091Z,73.0
2023-05-25T07:57:07.105Z,71.5
2023-05-25T08:02:07.120Z,71.0
2023-05-25T08:07:07.098Z,71.0
2023-05-25T08:17:07.174Z,68.0
2023-05-25T08:22:07.103Z,68.0
2023-05-25T08:27:07.109Z,67.5
2023-05-25T08:32:07.104Z,69.0
2023-05-25T08:37:07.102Z,67.0
2023-05-25T08:42:07.121Z,68.0
2023-05-25T08:47:07.114Z,67.5
2023-05-25T08:52:07.121Z,65.5
2023-05-25T08:57:07.115Z,64.5
2023-05-25T09:02:07.158Z,65.0
2023-05-25T09:07:10.744Z,65.0
2023-05-25T09:12:07.120Z,65.0
2023-05-25T09:17:07.112Z,63.0
2023-05-25T09:22:15.563Z,62.0
2023-05-25T09:27:07.162Z,62.0
2023-05-25T09:32:07.200Z,63.0
2023-05-25T09:37:07.402Z,62.5
2023-05-25T09:42:07.140Z,63.0
2023-05-25T09:47:07.178Z,62.0
2023-05-25T09:52:07.144Z,62.5
2023-05-25T09:57:07.152Z,61.5
2023-05-25T10:02:07.196Z,63.0
2023-05-25T10:07:07.170Z,62.5
2023-05-25T10:12:07.165Z,61.0
2023-05-25T10:17:07.163Z,61.0
2023-05-25T10:22:07.160Z,59.5
2023-05-25T10:27:18.583Z,59.0
2023-05-25T10:32:07.319Z,58.5
2023-05-25T10:37:07.166Z,59.5
2023-05-25T10:42:07.169Z,60.0
2023-05-25T10:47:07.223Z,60.5
2023-05-25T10:52:07.170Z,60.5
2023-05-25T10:57:07.171Z,60.0
2023-05-25T11:02:09.098Z,58.0
2023-05-25T11:07:07.176Z,57.0
2023-05-25T11:12:07.196Z,55.0
2023-05-25T11:17:07.312Z,55.5
2023-05-25T11:22:07.401Z,54.0
2023-05-25T11:27:07.193Z,52.5
2023-05-25T11:32:07.192Z,52.0
2023-05-25T11:37:07.814Z,54.0
2023-05-25T11:42:07.262Z,53.5
2023-05-25T11:47:07.212Z,52.5
2023-05-25T11:52:07.214Z,53.5
2023-05-25T11:57:07.207Z,54.0
2023-05-25T12:02:07.229Z,52.0
2023-05-25T12:07:07.228Z,49.0
2023-05-25T12:12:07.210Z,49.0
2023-05-25T12:17:07.315Z,49.0
2023-05-25T12:22:07.215Z,49.0
2023-05-25T12:27:07.223Z,49.0
2023-05-25T12:32:07.214Z,47.0
2023-05-25T12:37:07.225Z,46.5
2023-05-25T12:42:07.230Z,46.0
2023-05-25T12:47:07.264Z,48.0
2023-05-25T12:52:07.222Z,48.0
2023-05-25T12:57:07.246Z,48.5
2023-05-25T13:02:07.263Z,50.0
2023-05-25T13:07:07.226Z,48.5
2023-05-25T13:12:07.234Z,49.0
2023-05-25T13:17:07.242Z,48.5
2023-05-25T13:22:07.242Z,47.0
2023-05-25T13:27:07.250Z,47.0
2023-05-25T13:32:07.294Z,47.0
2023-05-25T13:37:07.247Z,45.0
2023-05-25T13:42:07.270Z,45.0
2023-05-25T13:47:07.324Z,44.0
2023-05-25T13:52:07.267Z,43.0
2023-05-25T13:57:07.256Z,43.0
2023-05-25T14:02:07.284Z,43.0
2023-05-25T14:07:07.265Z,45.0
2023-05-25T14:12:07.820Z,43.5
2023-05-25T14:17:07.275Z,41.5
2023-05-25T14:22:13.827Z,42.0
2023-05-25T14:27:07.454Z,42.0
2023-05-25T14:32:07.267Z,42.5
2023-05-25T14:37:07.282Z,42.0
2023-05-25T14:42:07.296Z,41.0
2023-05-25T14:47:07.350Z,40.5
2023-05-25T14:52:07.288Z,40.0
2023-05-25T14:57:07.297Z,38.5
2023-05-25T15:02:07.303Z,39.5
2023-05-25T15:07:07.293Z,39.0
2023-05-25T15:12:07.303Z,39.0
2023-05-25T15:17:07.309Z,37.0
2023-05-25T15:22:07.312Z,37.0
2023-05-25T15:27:07.313Z,35.5
2023-05-25T15:32:07.371Z,37.0
2023-05-25T15:37:07.313Z,38.0
2023-05-25T15:42:07.313Z,39.0
2023-05-25T15:47:07.308Z,39.0
2023-05-25T15:52:07.334Z,38.5
2023-05-25T15:57:07.312Z,38.5
2023-05-25T16:02:07.450Z,38.5
2023-05-25T16:07:07.328Z,38.0
2023-05-25T16:12:07.348Z,37.0
2023-05-25T16:17:07.331Z,37.5
2023-05-25T16:22:07.325Z,37.5
2023-05-25T16:27:07.351Z,37.0
2023-05-25T16:32:07.398Z,37.0
2023-05-25T16:37:07.336Z,36.5
2023-05-25T16:42:07.349Z,37.5
2023-05-25T16:47:07.341Z,37.0
2023-05-25T16:52:07.352Z,37.0
2023-05-25T16:57:07.343Z,36.5
2023-05-25T17:02:07.348Z,36.0
2023-05-25T17:07:07.353Z,36.0
2023-05-25T17:12:07.352Z,36.0
2023-05-25T17:17:07.355Z,36.0
2023-05-25T17:22:07.366Z,37.0
2023-05-25T17:27:07.363Z,36.0
2023-05-25T17:32:07.405Z,35.5
2023-05-25T17:37:07.372Z,35.5
2023-05-25T17:42:07.374Z,36.5
2023-05-25T17:47:10.066Z,37.0
2023-05-25T17:52:07.370Z,36.0
2023-05-25T17:57:07.413Z,35.5
2023-05-25T18:02:07.474Z,37.0
2023-05-25T18:07:07.392Z,36.0
2023-05-25T18:12:07.403Z,36.5
2023-05-25T18:17:07.410Z,37.5
2023-05-25T18:22:07.388Z,38.0
2023-05-25T18:27:07.374Z,38.0
2023-05-25T18:32:07.373Z,39.0
2023-05-25T18:37:07.377Z,39.0
2023-05-25T18:42:07.394Z,40.0
2023-05-25T18:47:07.379Z,40.5
2023-05-25T18:52:07.375Z,41.5
2023-05-25T18:57:07.385Z,42.5
2023-05-25T19:02:07.471Z,43.0
2023-05-25T19:07:07.390Z,44.0
2023-05-25T19:12:07.484Z,45.0
2023-05-25T19:17:07.376Z,46.0
2023-05-25T19:22:07.391Z,46.5
2023-05-25T19:27:07.387Z,47.0
2023-05-25T19:32:07.464Z,48.0
2023-05-25T19:37:11.485Z,49.0
2023-05-25T19:42:07.405Z,50.0
2023-05-25T19:47:07.381Z,50.5
2023-05-25T19:52:07.400Z,51.5
2023-05-25T19:57:07.380Z,52.5
2023-05-25T20:02:07.408Z,53.0
2023-05-25T20:07:07.402Z,53.5
2023-05-25T20:12:07.388Z,54.5
2023-05-25T20:17:07.396Z,54.5
2023-05-25T20:22:07.397Z,55.5
2023-05-25T20:27:07.395Z,56.0
2023-05-25T20:32:07.497Z,56.5
2023-05-25T20:37:07.395Z,57.5
2023-05-25T20:47:07.405Z,58.5
2023-05-25T20:52:07.411Z,59.5
2023-05-25T20:57:07.413Z,60.0
2023-05-25T21:02:07.495Z,60.0
2023-05-25T21:07:07.405Z,60.0
2023-05-25T21:12:07.417Z,60.5
2023-05-25T21:17:07.458Z,61.0
2023-05-25T21:22:07.464Z,62.0
2023-05-25T21:27:07.534Z,62.0
2023-05-25T21:32:07.465Z,63.0
2023-05-25T21:37:07.455Z,63.0
2023-05-25T21:42:07.410Z,63.5
2023-05-25T21:47:07.467Z,64.5
2023-05-25T21:52:07.426Z,65.0
2023-05-25T21:57:07.422Z,65.0
2023-05-25T22:02:07.435Z,65.5
2023-05-25T22:07:07.421Z,67.0
2023-05-25T22:12:07.423Z,67.0
2023-05-25T22:17:07.635Z,67.5
2023-05-25T22:22:07.413Z,68.0
2023-05-25T22:27:07.436Z,68.5
2023-05-25T22:32:07.426Z,69.0
2023-05-25T22:37:07.422Z,69.5
2023-05-25T22:42:07.438Z,70.0
2023-05-25T22:47:07.429Z,70.0
2023-05-25T22:52:07.448Z,70.5
2023-05-25T22:57:07.434Z,71.0
2023-05-25T23:02:07.779Z,71.0
2023-05-25T23:07:07.440Z,72.5
2023-05-25T23:12:07.445Z,72.5
2023-05-25T23:17:07.434Z,73.5
2023-05-25T23:22:07.457Z,74.0
2023-05-25T23:27:07.436Z,74.5
2023-05-25T23:32:07.538Z,75.0
2023-05-25T23:37:07.449Z,75.0
2023-05-25T23:42:07.444Z,75.5
2023-05-25T23:47:07.448Z,76.0
2023-05-25T23:52:07.451Z,76.5
2023-05-25T23:57:07.452Z,77.0
